TimePST,TemperatureF,Dew PointF,Humidity,Sea Level PressureIn,VisibilityMPH,Wind Direction,Wind SpeedMPH,Gust SpeedMPH,PrecipitationIn,Events,Conditions,WindDirDegrees,DateUTC
12:53 AM,28.0,26.1,92,30.29,10.0,Calm,Calm,-,N/A,,Clear,0,2013-11-26 08:53:00
1:53 AM,27.0,25.0,92,30.28,7.0,Calm,Calm,-,N/A,,Clear,0,2013-11-26 09:53:00
2:53 AM,28.0,25.0,88,30.28,9.0,Calm,Calm,-,N/A,,Clear,0,2013-11-26 10:53:00
3:53 AM,28.0,26.1,92,30.27,8.0,Calm,Calm,-,N/A,,Clear,0,2013-11-26 11:53:00
4:53 AM,27.0,25.0,92,30.28,7.0,Calm,Calm,-,N/A,,Clear,0,2013-11-26 12:53:00
5:53 AM,28.0,26.1,92,30.26,6.0,Calm,Calm,-,N/A,,Clear,0,2013-11-26 13:53:00
6:53 AM,27.0,25.0,92,30.26,7.0,Calm,Calm,-,N/A,,Clear,0,2013-11-26 14:53:00
7:53 AM,28.0,26.1,92,30.27,6.0,NW,3.5,-,N/A,,Haze,320,2013-11-26 15:53:00
8:53 AM,30.0,28.0,92,30.27,7.0,Calm,Calm,-,N/A,,Clear,0,2013-11-26 16:53:00
9:53 AM,35.1,30.9,85,30.27,10.0,Calm,Calm,-,N/A,,Clear,0,2013-11-26 17:53:00
10:53 AM,37.9,32.0,79,30.25,10.0,WNW,4.6,-,N/A,,Clear,290,2013-11-26 18:53:00
11:53 AM,39.9,32.0,73,30.22,10.0,NW,3.5,-,N/A,,Clear,320,2013-11-26 19:53:00
12:53 PM,43.0,30.0,60,30.20,10.0,Calm,Calm,-,N/A,,Clear,0,2013-11-26 20:53:00
1:53 PM,45.0,30.0,56,30.17,10.0,Calm,Calm,-,N/A,,Clear,0,2013-11-26 21:53:00
2:53 PM,45.0,30.9,58,30.16,10.0,Calm,Calm,-,N/A,,Overcast,0,2013-11-26 22:53:00
3:53 PM,45.0,30.9,58,30.15,10.0,NW,3.5,-,N/A,,Overcast,320,2013-11-26 23:53:00
4:53 PM,44.1,32.0,63,30.15,10.0,Calm,Calm,-,N/A,,Overcast,0,2013-11-27 00:53:00
5:53 PM,44.1,32.0,63,30.15,10.0,Calm,Calm,-,N/A,,Overcast,0,2013-11-27 01:53:00
6:53 PM,43.0,35.1,74,30.14,10.0,Calm,Calm,-,N/A,,Overcast,0,2013-11-27 02:53:00
7:53 PM,42.1,33.1,70,30.14,10.0,Calm,Calm,-,N/A,,Overcast,0,2013-11-27 03:53:00
8:53 PM,42.1,34.0,73,30.12,10.0,Calm,Calm,-,N/A,,Overcast,0,2013-11-27 04:53:00
9:53 PM,41.0,35.1,79,30.12,10.0,Calm,Calm,-,N/A,,Overcast,0,2013-11-27 05:53:00
10:53 PM,37.9,34.0,86,30.10,10.0,Calm,Calm,-,0.00,Rain,Light Rain,0,2013-11-27 06:53:00
11:53 PM,37.0,34.0,89,30.09,9.0,Calm,Calm,-,0.00,,Overcast,0,2013-11-27 07:53:00